createdAt,value
2018-02-04T00:00:38.885Z,78.17
2018-02-04T00:03:06.458Z,76.42
2018-02-04T00:05:34.082Z,76.03
2018-02-04T00:08:01.719Z,75.94
2018-02-04T00:10:29.298Z,75.82
2018-02-04T00:12:57.007Z,76.10
2018-02-04T00:15:24.644Z,76.33
2018-02-04T00:17:52.220Z,77.02
2018-02-04T00:20:19.850Z,78.29
2018-02-04T00:22:47.478Z,78.67
2018-02-04T00:25:15.076Z,78.69
2018-02-04T00:27:42.701Z,78.26
2018-02-04T00:30:10.314Z,77.88
2018-02-04T00:32:37.884Z,77.75
2018-02-04T00:35:05.450Z,77.60
2018-02-04T00:37:33.025Z,77.37
2018-02-04T00:40:00.572Z,77.34
2018-02-04T00:42:28.147Z,77.29
2018-02-04T00:44:55.717Z,77.36
2018-02-04T00:47:23.330Z,77.39
2018-02-04T00:49:50.975Z,77.40
2018-02-04T00:52:18.595Z,77.15
2018-02-04T00:54:47.026Z,77.52
2018-02-04T00:57:14.566Z,77.38
2018-02-04T00:59:42.148Z,77.47
2018-02-04T01:02:09.767Z,77.37
2018-02-04T01:04:37.386Z,77.44
2018-02-04T01:07:05.059Z,77.46
2018-02-04T01:09:32.626Z,77.37
2018-02-04T01:12:00.193Z,77.11
2018-02-04T01:14:27.749Z,77.24
2018-02-04T01:16:55.332Z,77.38
2018-02-04T01:19:22.964Z,77.40
2018-02-04T01:21:50.676Z,77.49
2018-02-04T01:24:18.251Z,77.45
2018-02-04T01:26:45.818Z,77.48
2018-02-04T01:29:13.414Z,77.60
2018-02-04T01:31:41.039Z,77.66
2018-02-04T01:34:08.612Z,78.09
2018-02-04T01:36:36.246Z,78.58
2018-02-04T01:39:03.999Z,79.42
2018-02-04T01:41:31.622Z,80.28
2018-02-04T01:43:59.202Z,81.05
2018-02-04T01:46:26.848Z,81.45
2018-02-04T01:48:54.414Z,82.00
2018-02-04T01:51:22.053Z,82.65
2018-02-04T01:53:49.601Z,82.74
2018-02-04T01:56:17.202Z,83.47
2018-02-04T01:58:44.839Z,83.76
2018-02-04T02:01:12.425Z,84.20
2018-02-04T02:03:39.999Z,84.65
2018-02-04T02:06:07.561Z,85.31
2018-02-04T02:08:35.130Z,86.14
2018-02-04T02:11:02.755Z,86.95
2018-02-04T02:13:30.361Z,87.42
2018-02-04T02:15:57.970Z,87.86
2018-02-04T02:18:25.522Z,88.00
2018-02-04T02:20:53.162Z,88.33
2018-02-04T02:23:20.725Z,88.99
2018-02-04T02:25:48.290Z,89.19
2018-02-04T02:28:15.846Z,89.37
2018-02-04T02:30:43.515Z,90.11
2018-02-04T02:33:11.124Z,90.26
2018-02-04T02:35:38.681Z,90.22
2018-02-04T02:38:06.303Z,90.60
2018-02-04T02:40:33.861Z,90.75
2018-02-04T02:43:01.425Z,90.93
2018-02-04T02:45:28.980Z,90.90
2018-02-04T02:47:56.590Z,90.85
2018-02-04T02:50:24.206Z,90.96
2018-02-04T02:52:52.490Z,91.17
2018-02-04T02:55:20.053Z,91.27
2018-02-04T02:57:47.735Z,91.29
2018-02-04T03:00:15.321Z,91.26
2018-02-04T03:02:42.879Z,91.24
2018-02-04T03:05:10.487Z,91.34
2018-02-04T03:07:38.098Z,91.35
2018-02-04T03:10:05.657Z,91.10
2018-02-04T03:12:33.222Z,91.15
2018-02-04T03:15:00.774Z,91.26
2018-02-04T03:17:28.344Z,91.23
2018-02-04T03:19:55.897Z,91.16
2018-02-04T03:22:23.562Z,90.92
2018-02-04T03:24:51.161Z,90.84
2018-02-04T03:27:18.726Z,90.65
2018-02-04T03:29:46.293Z,90.60
2018-02-04T03:32:13.850Z,90.59
2018-02-04T03:34:41.426Z,90.64
2018-02-04T03:37:08.988Z,90.64
2018-02-04T03:39:36.602Z,90.57
2018-02-04T03:42:04.162Z,90.49
2018-02-04T03:44:31.700Z,90.38
2018-02-04T03:46:59.281Z,90.56
2018-02-04T03:49:26.877Z,90.66
2018-02-04T03:51:54.446Z,90.64
2018-02-04T03:54:22.010Z,90.56
2018-02-04T03:56:49.609Z,90.55
2018-02-04T03:59:17.167Z,90.57
2018-02-04T04:01:44.728Z,90.68
2018-02-04T04:04:12.308Z,90.64
2018-02-04T04:06:39.876Z,90.66
2018-02-04T04:09:07.446Z,90.68
2018-02-04T04:11:35.090Z,90.43
2018-02-04T04:14:02.716Z,90.57
2018-02-04T04:16:30.338Z,90.77
2018-02-04T04:18:57.918Z,90.61
2018-02-04T04:21:25.492Z,90.66
2018-02-04T04:23:53.110Z,90.64
2018-02-04T04:26:20.743Z,90.45
2018-02-04T04:28:48.308Z,90.57
2018-02-04T04:31:15.918Z,90.73
2018-02-04T04:33:43.560Z,90.60
2018-02-04T04:36:11.185Z,90.53
2018-02-04T04:38:38.758Z,90.63
2018-02-04T04:41:06.326Z,90.84
2018-02-04T04:43:33.897Z,90.65
2018-02-04T04:46:01.449Z,90.85
2018-02-04T04:48:29.066Z,91.24
2018-02-04T04:50:56.634Z,91.35
2018-02-04T04:53:24.200Z,91.27
2018-02-04T04:55:51.883Z,91.28
2018-02-04T04:58:19.446Z,91.33
2018-02-04T05:00:47.020Z,91.34
2018-02-04T05:03:14.683Z,91.37
2018-02-04T05:05:42.269Z,91.35
2018-02-04T05:08:09.827Z,91.34
2018-02-04T05:10:37.391Z,91.29
2018-02-04T05:13:04.976Z,91.42
2018-02-04T05:15:32.598Z,91.34
2018-02-04T05:18:00.241Z,91.23
2018-02-04T05:20:27.861Z,91.07
2018-02-04T05:22:55.466Z,90.77
2018-02-04T05:25:23.083Z,90.70
2018-02-04T05:27:50.641Z,90.38
2018-02-04T05:30:18.202Z,90.55
2018-02-04T05:32:45.813Z,90.63
2018-02-04T05:35:13.438Z,90.70
2018-02-04T05:37:40.991Z,90.76
2018-02-04T05:40:08.606Z,90.86
2018-02-04T05:42:36.165Z,90.83
2018-02-04T05:45:03.706Z,90.96
2018-02-04T05:47:31.303Z,90.65
2018-02-04T05:49:58.973Z,90.58
2018-02-04T05:52:26.528Z,90.04
2018-02-04T05:54:54.138Z,89.50
2018-02-04T05:57:21.853Z,89.50
2018-02-04T05:59:49.457Z,89.48
2018-02-04T06:02:17.005Z,89.62
2018-02-04T06:04:44.570Z,89.75
2018-02-04T06:07:12.136Z,89.91
2018-02-04T06:09:39.739Z,89.91
2018-02-04T06:12:07.355Z,90.05
2018-02-04T06:14:34.955Z,89.99
2018-02-04T06:17:02.582Z,89.78
2018-02-04T06:19:30.251Z,89.90
2018-02-04T06:21:57.967Z,89.90
2018-02-04T06:24:25.570Z,89.90
2018-02-04T06:26:53.186Z,89.63
2018-02-04T06:29:20.826Z,89.75
2018-02-04T06:31:48.508Z,89.80
2018-02-04T06:34:16.158Z,89.99
2018-02-04T06:36:43.789Z,89.94
2018-02-04T06:39:11.348Z,89.78
2018-02-04T06:41:38.922Z,89.69
2018-02-04T06:44:06.550Z,89.57
2018-02-04T06:46:34.179Z,88.93
2018-02-04T06:49:01.735Z,88.50
2018-02-04T06:51:29.335Z,87.90
2018-02-04T06:53:56.889Z,88.06
2018-02-04T06:56:24.442Z,88.05
2018-02-04T06:58:52.062Z,87.97
2018-02-04T07:01:19.665Z,87.80
2018-02-04T07:03:47.343Z,86.74
2018-02-04T07:06:14.938Z,86.68
2018-02-04T07:08:42.497Z,87.08
2018-02-04T07:11:10.131Z,87.36
2018-02-04T07:13:37.743Z,87.47
2018-02-04T07:16:05.310Z,87.46
2018-02-04T07:18:32.870Z,87.17
2018-02-04T07:21:00.485Z,87.58
2018-02-04T07:23:28.111Z,87.73
2018-02-04T07:25:55.666Z,87.49
2018-02-04T07:28:23.240Z,86.75
2018-02-04T07:30:50.810Z,86.98
2018-02-04T07:33:18.391Z,87.18
2018-02-04T07:35:46.036Z,87.51
2018-02-04T07:38:13.657Z,87.39
2018-02-04T07:40:41.228Z,87.53
2018-02-04T07:43:08.852Z,86.82
2018-02-04T07:45:36.522Z,87.00
2018-02-04T07:48:04.088Z,87.35
2018-02-04T07:50:31.682Z,87.49
2018-02-04T07:52:59.249Z,87.32
2018-02-04T07:55:26.828Z,87.42
2018-02-04T07:57:54.437Z,86.87
2018-02-04T08:00:22.058Z,86.86
2018-02-04T08:02:49.665Z,87.09
2018-02-04T08:05:17.217Z,86.98
2018-02-04T08:07:44.788Z,87.08
2018-02-04T08:10:12.411Z,86.62
2018-02-04T08:12:40.013Z,86.85
2018-02-04T08:15:07.649Z,86.98
2018-02-04T08:17:35.225Z,86.87
2018-02-04T08:20:02.886Z,86.76
2018-02-04T08:22:30.448Z,86.88
2018-02-04T08:24:58.076Z,85.49
2018-02-04T08:27:25.705Z,85.94
2018-02-04T08:29:53.316Z,86.39
2018-02-04T08:32:20.950Z,86.52
2018-02-04T08:34:48.508Z,86.83
2018-02-04T08:37:16.190Z,85.70
2018-02-04T08:39:43.745Z,86.13
2018-02-04T08:42:11.306Z,86.52
2018-02-04T08:44:38.874Z,86.57
2018-02-04T08:47:07.445Z,86.43
2018-02-04T08:49:35.646Z,85.89
2018-02-04T08:52:03.301Z,86.01
2018-02-04T08:54:31.027Z,85.91
2018-02-04T08:56:58.591Z,85.88
2018-02-04T08:59:26.150Z,85.39
2018-02-04T09:01:53.736Z,85.83
2018-02-04T09:04:21.307Z,86.17
2018-02-04T09:06:48.883Z,86.49
2018-02-04T09:09:16.498Z,86.33
2018-02-04T09:11:44.166Z,85.91
2018-02-04T09:14:11.734Z,86.14
2018-02-04T09:16:39.292Z,86.13
2018-02-04T09:19:06.916Z,86.44
2018-02-04T09:21:34.471Z,85.80
2018-02-04T09:24:02.113Z,85.71
2018-02-04T09:26:29.678Z,85.85
2018-02-04T09:28:57.297Z,85.99
2018-02-04T09:31:24.861Z,86.47
2018-02-04T09:33:52.483Z,86.52
2018-02-04T09:36:20.151Z,86.83
2018-02-04T09:38:47.710Z,86.51
2018-02-04T09:41:15.284Z,86.32
2018-02-04T09:43:42.911Z,87.13
2018-02-04T09:46:10.522Z,86.44
2018-02-04T09:48:38.143Z,86.12
2018-02-04T09:51:05.694Z,86.89
2018-02-04T09:53:33.262Z,86.98
2018-02-04T09:56:00.813Z,87.42
2018-02-04T09:58:28.382Z,87.65
2018-02-04T10:00:55.954Z,86.94
2018-02-04T10:03:23.539Z,87.73
2018-02-04T10:05:51.093Z,88.27
2018-02-04T10:08:18.645Z,87.52
2018-02-04T10:10:46.225Z,87.56
2018-02-04T10:13:13.851Z,87.54
2018-02-04T10:15:41.464Z,87.27
2018-02-04T10:18:09.023Z,87.08
2018-02-04T10:20:36.700Z,87.35
2018-02-04T10:23:04.327Z,87.49
2018-02-04T10:25:31.885Z,86.83
2018-02-04T10:27:59.493Z,86.72
2018-02-04T10:30:27.110Z,87.18
2018-02-04T10:32:54.744Z,87.13
2018-02-04T10:35:22.401Z,87.08
2018-02-04T10:37:50.087Z,86.61
2018-02-04T10:40:17.653Z,87.32
2018-02-04T10:42:45.249Z,87.57
2018-02-04T10:45:12.882Z,87.09
2018-02-04T10:47:40.503Z,87.44
2018-02-04T10:50:08.149Z,87.64
2018-02-04T10:52:35.774Z,87.01
2018-02-04T10:55:03.446Z,86.80
2018-02-04T10:57:31.066Z,87.20
2018-02-04T10:59:58.631Z,87.32
2018-02-04T11:02:26.204Z,86.84
2018-02-04T11:04:53.769Z,86.67
2018-02-04T11:07:21.330Z,86.31
2018-02-04T11:09:48.904Z,86.20
2018-02-04T11:12:16.547Z,86.56
2018-02-04T11:14:44.403Z,85.65
2018-02-04T11:17:11.987Z,85.61
2018-02-04T11:19:39.554Z,85.34
2018-02-04T11:22:07.106Z,85.19
2018-02-04T11:24:34.732Z,85.71
2018-02-04T11:27:02.290Z,86.71
2018-02-04T11:29:29.940Z,87.10
2018-02-04T11:31:57.588Z,87.38
2018-02-04T11:34:25.155Z,87.48
2018-02-04T11:36:52.739Z,87.63
2018-02-04T11:39:20.317Z,87.31
2018-02-04T11:41:47.892Z,87.59
2018-02-04T11:44:15.521Z,86.18
2018-02-04T11:46:43.205Z,86.79
2018-02-04T11:49:10.782Z,86.97
2018-02-04T11:51:38.379Z,86.87
2018-02-04T11:54:06.047Z,86.85
2018-02-04T11:56:33.650Z,86.76
2018-02-04T11:59:01.957Z,86.65
2018-02-04T12:01:29.588Z,86.18
2018-02-04T12:03:58.108Z,85.88
2018-02-04T12:06:26.559Z,86.30
2018-02-04T12:08:54.180Z,86.84
2018-02-04T12:11:21.749Z,85.98
2018-02-04T12:13:49.379Z,86.84
2018-02-04T12:16:17.014Z,87.51
2018-02-04T12:18:44.559Z,86.60
2018-02-04T12:21:12.134Z,86.72
2018-02-04T12:23:39.773Z,86.31
2018-02-04T12:26:07.334Z,86.28
2018-02-04T12:28:34.945Z,86.64
2018-02-04T12:31:02.521Z,85.84
2018-02-04T12:33:30.147Z,86.12
2018-02-04T12:35:57.714Z,82.72
2018-02-04T12:38:25.274Z,80.99
2018-02-04T12:40:52.907Z,82.61
2018-02-04T12:43:20.477Z,81.28
2018-02-04T12:45:48.211Z,81.37
2018-02-04T12:48:15.796Z,83.03
2018-02-04T12:50:43.417Z,84.29
2018-02-04T12:53:10.994Z,84.68
2018-02-04T12:55:38.560Z,85.25
2018-02-04T12:58:06.201Z,85.47
2018-02-04T13:00:33.829Z,85.57
2018-02-04T13:03:01.477Z,84.48
2018-02-04T13:05:29.045Z,85.10
2018-02-04T13:07:56.606Z,85.41
2018-02-04T13:10:24.192Z,84.54
2018-02-04T13:12:51.753Z,85.02
2018-02-04T13:15:19.334Z,85.13
2018-02-04T13:17:46.899Z,85.10
2018-02-04T13:20:14.578Z,85.30
2018-02-04T13:22:42.140Z,84.50
2018-02-04T13:25:09.710Z,83.87
2018-02-04T13:27:37.280Z,83.21
2018-02-04T13:30:04.853Z,82.14
2018-02-04T13:32:32.478Z,81.68
2018-02-04T13:35:00.040Z,82.16
2018-02-04T13:37:27.683Z,79.65
2018-02-04T13:39:55.257Z,81.44
2018-02-04T13:42:22.840Z,81.24
2018-02-04T13:44:50.468Z,81.15
2018-02-04T13:47:18.085Z,80.82
2018-02-04T13:49:45.700Z,80.13
2018-02-04T13:52:13.287Z,80.19
2018-02-04T13:54:40.852Z,81.27
2018-02-04T13:57:08.494Z,82.16
2018-02-04T13:59:36.123Z,82.08
2018-02-04T14:02:03.692Z,82.09
2018-02-04T14:04:31.257Z,82.31
2018-02-04T14:06:58.906Z,81.46
2018-02-04T14:09:26.523Z,80.97
2018-02-04T14:11:54.090Z,81.41
2018-02-04T14:14:21.650Z,82.45
2018-02-04T14:16:49.253Z,82.80
2018-02-04T14:19:16.880Z,82.29
2018-02-04T14:21:44.518Z,82.02
2018-02-04T14:24:12.127Z,81.44
2018-02-04T14:26:39.698Z,81.49
2018-02-04T14:29:07.262Z,81.83
2018-02-04T14:31:34.844Z,81.68
2018-02-04T14:34:02.441Z,81.33
2018-02-04T14:36:30.072Z,81.62
2018-02-04T14:38:57.644Z,80.97
2018-02-04T14:41:25.272Z,80.91
2018-02-04T14:43:53.886Z,80.77
2018-02-04T14:46:21.559Z,80.95
2018-02-04T14:48:49.192Z,79.68
2018-02-04T14:51:16.750Z,78.79
2018-02-04T14:53:44.352Z,78.75
2018-02-04T14:56:11.979Z,78.64
2018-02-04T14:58:39.554Z,78.43
2018-02-04T15:01:07.125Z,78.94
2018-02-04T15:03:34.843Z,78.90
2018-02-04T15:06:02.440Z,78.91
2018-02-04T15:08:30.000Z,79.74
2018-02-04T15:10:57.666Z,79.69
2018-02-04T15:13:25.290Z,78.85
2018-02-04T15:15:52.911Z,78.48
2018-02-04T15:18:20.641Z,78.80
2018-02-04T15:20:48.433Z,78.75
2018-02-04T15:23:16.081Z,77.52
2018-02-04T15:25:44.661Z,78.27
2018-02-04T15:28:12.382Z,78.23
2018-02-04T15:30:40.114Z,78.67
2018-02-04T15:33:07.854Z,78.75
2018-02-04T15:35:35.540Z,77.77
2018-02-04T15:38:03.176Z,78.80
2018-02-04T15:40:30.798Z,79.37
2018-02-04T15:42:59.413Z,78.13
2018-02-04T15:45:27.819Z,76.76
2018-02-04T15:47:56.107Z,77.08
2018-02-04T15:50:23.685Z,77.41
2018-02-04T15:52:51.263Z,78.10
2018-02-04T15:55:18.908Z,78.34
2018-02-04T15:57:46.651Z,78.77
2018-02-04T16:00:14.273Z,79.23
2018-02-04T16:02:41.906Z,80.27
2018-02-04T16:05:09.546Z,79.88
2018-02-04T16:07:37.170Z,79.68
2018-02-04T16:10:04.752Z,79.60
2018-02-04T16:12:32.439Z,79.60
2018-02-04T16:15:00.148Z,79.51
2018-02-04T16:17:27.828Z,80.20
2018-02-04T16:19:55.458Z,80.30
2018-02-04T16:22:23.056Z,80.35
2018-02-04T16:24:50.710Z,79.85
2018-02-04T16:27:18.285Z,78.66
2018-02-04T16:29:45.937Z,78.95
2018-02-04T16:32:13.491Z,79.33
2018-02-04T16:34:41.066Z,79.19
2018-02-04T16:37:08.664Z,78.68
2018-02-04T16:39:36.225Z,79.19
2018-02-04T16:42:03.802Z,78.67
2018-02-04T16:44:31.380Z,79.49
2018-02-04T16:46:59.170Z,78.77
2018-02-04T16:49:26.790Z,78.80
2018-02-04T16:51:54.354Z,79.40
2018-02-04T16:54:22.004Z,79.08
2018-02-04T16:56:49.631Z,79.19
2018-02-04T16:59:17.216Z,79.58
2018-02-04T17:01:44.882Z,79.56
2018-02-04T17:04:12.521Z,78.89
2018-02-04T17:06:40.096Z,79.28
2018-02-04T17:09:07.755Z,79.78
2018-02-04T17:11:35.332Z,80.64
2018-02-04T17:14:02.966Z,80.24
2018-02-04T17:16:30.548Z,80.33
2018-02-04T17:18:58.174Z,80.32
2018-02-04T17:21:25.868Z,80.72
2018-02-04T17:23:53.436Z,81.36
2018-02-04T17:26:21.006Z,81.35
2018-02-04T17:28:48.586Z,81.76
2018-02-04T17:31:16.191Z,81.63
2018-02-04T17:33:43.829Z,81.81
2018-02-04T17:36:11.407Z,82.62
2018-02-04T17:38:39.023Z,82.96
2018-02-04T17:41:06.676Z,82.61
2018-02-04T17:43:34.247Z,83.05
2018-02-04T17:46:01.823Z,83.09
2018-02-04T17:48:29.474Z,83.37
2018-02-04T17:50:57.103Z,83.13
2018-02-04T17:53:24.715Z,82.83
2018-02-04T17:55:52.382Z,82.63
2018-02-04T17:58:20.010Z,82.73
2018-02-04T18:00:47.586Z,82.50
2018-02-04T18:03:15.159Z,83.07
2018-02-04T18:05:42.730Z,84.13
2018-02-04T18:08:10.365Z,84.37
2018-02-04T18:10:37.986Z,84.94
2018-02-04T18:13:05.610Z,84.93
2018-02-04T18:15:33.188Z,85.77
2018-02-04T18:18:01.547Z,85.45
2018-02-04T18:20:29.123Z,85.55
2018-02-04T18:22:56.743Z,85.69
2018-02-04T18:25:24.322Z,85.88
2018-02-04T18:27:51.910Z,86.31
2018-02-04T18:30:19.698Z,86.33
2018-02-04T18:32:47.272Z,86.85
2018-02-04T18:35:14.841Z,87.31
2018-02-04T18:37:42.427Z,87.47
2018-02-04T18:40:10.043Z,87.39
2018-02-04T18:42:37.610Z,87.65
2018-02-04T18:45:05.250Z,87.89
2018-02-04T18:47:32.890Z,87.85
2018-02-04T18:50:00.583Z,87.89
2018-02-04T18:52:28.242Z,88.01
2018-02-04T18:54:55.851Z,88.16
2018-02-04T18:57:23.472Z,88.39
2018-02-04T18:59:51.156Z,88.25
2018-02-04T19:02:18.734Z,87.96
2018-02-04T19:04:46.559Z,86.51
2018-02-04T19:07:15.320Z,82.89
2018-02-04T19:09:42.929Z,82.72
2018-02-04T19:12:10.599Z,82.65
2018-02-04T19:14:38.357Z,80.86
2018-02-04T19:17:05.975Z,80.91
2018-02-04T19:19:33.535Z,80.76
2018-02-04T19:22:01.743Z,80.40
2018-02-04T19:24:29.628Z,79.99
2018-02-04T19:26:57.447Z,80.46
2018-02-04T19:29:25.078Z,81.64
2018-02-04T19:31:52.682Z,81.24
2018-02-04T19:34:20.323Z,80.53
2018-02-04T19:36:47.925Z,80.92
2018-02-04T19:39:15.510Z,80.80
2018-02-04T19:41:43.219Z,80.68
2018-02-04T19:44:10.833Z,80.97
2018-02-04T19:46:38.499Z,80.50
2018-02-04T19:49:06.097Z,79.80
2018-02-04T19:51:33.783Z,78.99
2018-02-04T19:54:01.353Z,79.25
2018-02-04T19:56:29.444Z,79.31
2018-02-04T19:58:57.094Z,78.71
2018-02-04T20:01:24.673Z,78.60
2018-02-04T20:03:52.376Z,77.86
2018-02-04T20:06:19.960Z,78.66
2018-02-04T20:08:47.530Z,79.52
2018-02-04T20:11:16.090Z,79.98
2018-02-04T20:13:43.692Z,80.05
2018-02-04T20:16:11.289Z,80.32
2018-02-04T20:18:38.862Z,80.55
2018-02-04T20:21:06.578Z,81.86
2018-02-04T20:23:34.202Z,81.67
2018-02-04T20:26:01.779Z,81.93
2018-02-04T20:28:29.343Z,81.90
2018-02-04T20:30:57.015Z,81.75
2018-02-04T20:33:25.626Z,81.73
2018-02-04T20:35:53.194Z,81.48
2018-02-04T20:38:21.171Z,82.35
2018-02-04T20:40:49.160Z,83.03
2018-02-04T20:43:16.743Z,82.77
2018-02-04T20:45:44.342Z,83.28
2018-02-04T20:48:11.956Z,83.17
2018-02-04T20:50:39.582Z,83.53
2018-02-04T20:53:07.239Z,83.89
2018-02-04T20:55:34.848Z,84.13
2018-02-04T20:58:02.426Z,84.31
2018-02-04T21:00:30.009Z,84.27
2018-02-04T21:02:57.597Z,84.61
2018-02-04T21:05:25.146Z,83.63
2018-02-04T21:07:52.939Z,82.42
2018-02-04T21:10:20.574Z,81.22
2018-02-04T21:12:48.241Z,80.87
2018-02-04T21:15:15.900Z,80.67
2018-02-04T21:17:43.531Z,80.61
2018-02-04T21:20:11.190Z,80.01
2018-02-04T21:22:39.084Z,79.96
2018-02-04T21:25:06.763Z,79.13
2018-02-04T21:27:34.334Z,78.91
2018-02-04T21:30:01.964Z,75.79
2018-02-04T21:32:29.555Z,76.62
2018-02-04T21:34:57.191Z,76.48
2018-02-04T21:37:24.811Z,76.31
2018-02-04T21:39:52.378Z,75.86
2018-02-04T21:42:19.999Z,77.03
2018-02-04T21:44:47.742Z,76.99
2018-02-04T21:47:15.362Z,77.12
2018-02-04T21:49:42.952Z,77.54
2018-02-04T21:52:10.528Z,77.32
2018-02-04T21:54:38.108Z,78.57
2018-02-04T21:57:06.015Z,78.39
2018-02-04T21:59:33.821Z,79.34
2018-02-04T22:02:01.459Z,79.10
2018-02-04T22:04:29.035Z,78.94
2018-02-04T22:06:56.667Z,77.04
2018-02-04T22:09:24.297Z,77.55
2018-02-04T22:11:51.935Z,76.50
2018-02-04T22:14:19.604Z,76.35
2018-02-04T22:16:47.241Z,77.19
2018-02-04T22:19:14.806Z,76.75
2018-02-04T22:21:42.443Z,76.99
2018-02-04T22:24:10.099Z,76.76
2018-02-04T22:26:37.737Z,75.97
2018-02-04T22:29:05.317Z,75.77
2018-02-04T22:31:32.901Z,77.14
2018-02-04T22:34:00.588Z,77.05
2018-02-04T22:36:28.215Z,75.84
2018-02-04T22:38:55.790Z,76.22
2018-02-04T22:41:23.362Z,74.05
2018-02-04T22:43:50.989Z,74.73
2018-02-04T22:46:18.618Z,75.82
2018-02-04T22:48:46.191Z,74.53
2018-02-04T22:51:13.839Z,75.24
2018-02-04T22:53:41.482Z,74.17
2018-02-04T22:56:09.033Z,74.25
2018-02-04T22:58:36.606Z,75.36
2018-02-04T23:01:04.175Z,75.60
2018-02-04T23:03:31.758Z,75.74
2018-02-04T23:05:59.322Z,75.58
2018-02-04T23:08:26.937Z,74.62
2018-02-04T23:10:54.515Z,75.39
2018-02-04T23:13:22.142Z,75.36
2018-02-04T23:15:49.714Z,74.93
2018-02-04T23:18:17.315Z,75.76
2018-02-04T23:20:44.930Z,76.10
2018-02-04T23:23:12.581Z,76.38
2018-02-04T23:25:40.209Z,76.76
2018-02-04T23:28:07.842Z,75.81
2018-02-04T23:30:35.466Z,76.11
2018-02-04T23:33:03.046Z,75.50
2018-02-04T23:35:30.610Z,76.31
2018-02-04T23:37:58.186Z,76.68
2018-02-04T23:40:25.734Z,77.39
2018-02-04T23:42:53.324Z,78.12
2018-02-04T23:45:20.948Z,78.84
2018-02-04T23:47:48.585Z,78.97
2018-02-04T23:50:16.162Z,78.61
2018-02-04T23:52:43.730Z,79.49
2018-02-04T23:55:11.341Z,79.43
2018-02-04T23:57:38.965Z,78.62
